Time;durP1;ratioP1;P1;durP2;ratioP2;P2;SDS_P1;SDS_P2;PMS_P1;PMS_P2;Temp;Humidity;BMP_temperature;BMP_pressure;BME280_temperature;BME280_humidity;BME280_pressure;Samples;Min_cycle;Max_cycle;Signal;HPM_P1;HPM_P2
2022/03/06 00:00:30;;;;;;;20.23;14.70;;;;;;;;;;4974884;28;20057;-70
2022/03/06 00:02:58;;;;;;;18.10;13.68;;;;;;;;;;4986761;28;20100;-70
2022/03/06 00:05:25;;;;;;;19.38;14.60;;;;;;;;;;4983819;28;20473;-70
2022/03/06 00:07:56;;;;;;;23.23;15.60;;;;;;;;;;5006301;28;20125;-70
2022/03/06 00:10:23;;;;;;;18.95;14.60;;;;;;;;;;4978505;28;20059;-70
2022/03/06 00:12:51;;;;;;;17.40;12.70;;;;;;;;;;4984676;28;20133;-71
2022/03/06 00:15:26;;;;;;;19.90;15.23;;;;;;;;;;4993950;28;20073;-70
2022/03/06 00:17:55;;;;;;;;;;;;;;;;;;4994063;28;20050;-70
2022/03/06 00:20:26;;;;;;;18.85;13.80;;;;;;;;;;4993022;28;20293;-70
2022/03/06 00:22:55;;;;;;;21.40;14.65;;;;;;;;;;4992426;28;20085;-70
2022/03/06 00:25:24;;;;;;;22.67;13.82;;;;;;;;;;4995708;28;20050;-70
2022/03/06 00:27:52;;;;;;;22.15;14.32;;;;;;;;;;4996481;28;20061;-71
2022/03/06 00:30:20;;;;;;;23.35;15.20;;;;;;;;;;4996995;28;20440;-69
2022/03/06 00:32:48;;;;;;;20.75;15.60;;;;;;;;;;4997107;28;20057;-70
2022/03/06 00:35:15;;;;;;;23.35;16.38;;;;;;;;;;4980687;28;20133;-70
2022/03/06 00:37:43;;;;;;;22.08;14.85;;;;;;;;;;4995964;28;20574;-70
2022/03/06 00:40:13;;;;;;;19.50;14.73;;;;;;;;;;4995623;28;20046;-70
2022/03/06 00:42:41;;;;;;;19.98;12.90;;;;;;;;;;4977954;28;20133;-70
2022/03/06 00:45:09;;;;;;;21.95;14.43;;;;;;;;;;4990484;28;20100;-70
2022/03/06 00:47:37;;;;;;;19.40;12.88;;;;;;;;;;4996061;28;20042;-70
2022/03/06 00:50:07;;;;;;;16.50;13.40;;;;;;;;;;4995561;28;20049;-70
2022/03/06 00:52:36;;;;;;;18.52;14.48;;;;;;;;;;4978091;28;20061;-70
2022/03/06 00:55:04;;;;;;;18.90;13.68;;;;;;;;;;4977649;28;20053;-70
2022/03/06 00:57:33;;;;;;;17.58;13.80;;;;;;;;;;4986687;28;20093;-70
2022/03/06 01:00:01;;;;;;;17.08;12.75;;;;;;;;;;4996488;28;20070;-70
2022/03/06 01:02:29;;;;;;;18.58;14.57;;;;;;;;;;4996175;28;20062;-70
2022/03/06 01:04:56;;;;;;;18.48;13.88;;;;;;;;;;4995277;28;20065;-70
2022/03/06 01:07:25;;;;;;;19.90;13.93;;;;;;;;;;4990527;28;20489;-70
2022/03/06 01:09:53;;;;;;;16.00;12.40;;;;;;;;;;4996750;28;20401;-70
2022/03/06 01:12:21;;;;;;;18.42;14.73;;;;;;;;;;4996512;28;20038;-69
2022/03/06 01:14:49;;;;;;;18.90;13.88;;;;;;;;;;4995619;28;20054;-69
2022/03/06 01:17:17;;;;;;;17.95;13.43;;;;;;;;;;4996856;28;20054;-69
2022/03/06 01:19:45;;;;;;;21.10;13.98;;;;;;;;;;4995672;28;20109;-68
2022/03/06 01:22:12;;;;;;;18.73;14.77;;;;;;;;;;4995187;28;20061;-69
2022/03/06 01:24:40;;;;;;;18.13;13.50;;;;;;;;;;4979621;28;20058;-68
2022/03/06 01:27:08;;;;;;;18.98;13.25;;;;;;;;;;4994946;28;20100;-69
2022/03/06 01:29:36;;;;;;;19.10;13.27;;;;;;;;;;4996476;28;20057;-68
2022/03/06 01:32:03;;;;;;;22.70;14.68;;;;;;;;;;4994886;28;20070;-69
2022/03/06 01:34:31;;;;;;;19.73;15.00;;;;;;;;;;4995052;28;20046;-71
2022/03/06 01:36:59;;;;;;;22.27;14.55;;;;;;;;;;4978824;28;20052;-70
2022/03/06 01:39:27;;;;;;;22.58;15.85;;;;;;;;;;4995004;28;20080;-70
2022/03/06 01:41:54;;;;;;;17.15;13.57;;;;;;;;;;4990609;28;20490;-70
2022/03/06 01:44:23;;;;;;;23.48;16.15;;;;;;;;;;4981889;28;20057;-70
2022/03/06 01:46:51;;;;;;;19.50;13.85;;;;;;;;;;4983067;28;20105;-70
2022/03/06 01:49:20;;;;;;;22.67;14.27;;;;;;;;;;4975203;28;20053;-70
2022/03/06 01:51:50;;;;;;;16.58;12.13;;;;;;;;;;4976900;28;20470;-70
2022/03/06 01:54:18;;;;;;;19.30;15.15;;;;;;;;;;4976758;28;20051;-70
2022/03/06 01:56:46;;;;;;;21.63;14.30;;;;;;;;;;4993557;28;20097;-70
2022/03/06 01:59:14;;;;;;;21.90;15.85;;;;;;;;;;4996031;28;20046;-70
2022/03/06 02:01:42;;;;;;;17.55;13.60;;;;;;;;;;4995572;28;20054;-71
2022/03/06 02:04:10;;;;;;;20.60;13.98;;;;;;;;;;4979103;28;20050;-72
2022/03/06 02:06:39;;;;;;;17.85;14.40;;;;;;;;;;4995037;28;20046;-73
2022/03/06 02:09:07;;;;;;;19.02;13.70;;;;;;;;;;4979157;28;20554;-73
2022/03/06 02:11:36;;;;;;;20.23;13.70;;;;;;;;;;4994480;28;20406;-72
2022/03/06 02:14:05;;;;;;;18.88;14.20;;;;;;;;;;4996160;28;20056;-73
2022/03/06 02:16:32;;;;;;;17.40;12.90;;;;;;;;;;4984540;28;20459;-72
2022/03/06 02:19:00;;;;;;;21.95;15.60;;;;;;;;;;4975107;28;20077;-72
2022/03/06 02:21:27;;;;;;;18.55;12.82;;;;;;;;;;4982773;28;20076;-72
2022/03/06 02:23:56;;;;;;;17.98;12.60;;;;;;;;;;4977816;28;20417;-72
2022/03/06 02:26:23;;;;;;;17.90;13.80;;;;;;;;;;4994074;28;20050;-73
2022/03/06 02:28:51;;;;;;;17.50;12.77;;;;;;;;;;4994464;28;20070;-72
2022/03/06 02:31:19;;;;;;;18.50;14.35;;;;;;;;;;4994294;28;20445;-72
2022/03/06 02:33:47;;;;;;;24.05;14.40;;;;;;;;;;4995354;28;20046;-72
2022/03/06 02:36:14;;;;;;;17.60;13.10;;;;;;;;;;4994194;28;20046;-72
2022/03/06 02:38:42;;;;;;;18.75;12.77;;;;;;;;;;4977939;28;20484;-72
2022/03/06 02:41:09;;;;;;;16.73;12.98;;;;;;;;;;4994290;28;20137;-72
2022/03/06 02:43:37;;;;;;;18.65;13.02;;;;;;;;;;4978060;28;20043;-72
2022/03/06 02:46:04;;;;;;;18.13;14.15;;;;;;;;;;4994231;28;20062;-69
2022/03/06 02:48:32;;;;;;;21.85;14.18;;;;;;;;;;4993424;28;20058;-69
2022/03/06 02:50:59;;;;;;;18.65;13.75;;;;;;;;;;4977644;28;20042;-69
2022/03/06 02:53:27;;;;;;;19.63;13.73;;;;;;;;;;4994900;28;20061;-69
2022/03/06 02:55:55;;;;;;;18.42;14.13;;;;;;;;;;4994438;28;20054;-69
2022/03/06 02:58:23;;;;;;;16.38;13.50;;;;;;;;;;4994846;28;20054;-69
2022/03/06 03:00:50;;;;;;;19.40;14.43;;;;;;;;;;4993513;28;20050;-69
2022/03/06 03:03:18;;;;;;;18.98;14.43;;;;;;;;;;4987183;28;20109;-71
2022/03/06 03:05:46;;;;;;;25.90;14.70;;;;;;;;;;4993995;28;20054;-72
2022/03/06 03:08:13;;;;;;;20.77;13.63;;;;;;;;;;4993620;28;20078;-72
2022/03/06 03:10:40;;;;;;;21.60;14.55;;;;;;;;;;4993407;28;20058;-70
2022/03/06 03:13:07;;;;;;;21.17;14.52;;;;;;;;;;4993334;28;20050;-70
2022/03/06 03:15:35;;;;;;;17.23;13.80;;;;;;;;;;4977008;28;20089;-70
2022/03/06 03:18:02;;;;;;;20.80;14.18;;;;;;;;;;4994410;28;20046;-70
2022/03/06 03:20:30;;;;;;;16.55;11.93;;;;;;;;;;4993394;28;20089;-70
2022/03/06 03:22:57;;;;;;;22.27;13.45;;;;;;;;;;4992907;28;20093;-71
2022/03/06 03:25:25;;;;;;;23.58;14.40;;;;;;;;;;4994122;28;20134;-70
2022/03/06 03:27:52;;;;;;;20.23;13.63;;;;;;;;;;4992866;28;20134;-70
2022/03/06 03:30:20;;;;;;;16.55;13.45;;;;;;;;;;4992787;28;20050;-70
2022/03/06 03:32:48;;;;;;;21.52;13.73;;;;;;;;;;4993038;28;20375;-70
2022/03/06 03:35:16;;;;;;;22.65;14.95;;;;;;;;;;4994264;28;20137;-70
2022/03/06 03:37:45;;;;;;;19.85;14.15;;;;;;;;;;4993964;28;20077;-70
2022/03/06 03:40:12;;;;;;;17.27;11.85;;;;;;;;;;4992965;28;20054;-70
2022/03/06 03:42:40;;;;;;;19.63;12.75;;;;;;;;;;4993853;28;20050;-70
2022/03/06 03:45:08;;;;;;;18.48;12.63;;;;;;;;;;4977184;28;20133;-70
2022/03/06 03:47:35;;;;;;;19.13;13.82;;;;;;;;;;5008996;28;20081;-69
2022/03/06 03:50:04;;;;;;;17.80;13.40;;;;;;;;;;4993938;28;20085;-69
2022/03/06 03:52:32;;;;;;;17.48;13.30;;;;;;;;;;4994202;28;20409;-69
2022/03/06 03:55:03;;;;;;;18.67;13.80;;;;;;;;;;4992512;28;20077;-69
2022/03/06 03:57:31;;;;;;;20.33;14.57;;;;;;;;;;4993754;28;20468;-69
2022/03/06 03:59:59;;;;;;;17.70;13.80;;;;;;;;;;4995025;28;20124;-69
2022/03/06 04:02:26;;;;;;;17.98;13.70;;;;;;;;;;4992480;28;20070;-69
2022/03/06 04:04:54;;;;;;;18.55;14.48;;;;;;;;;;4994542;28;20129;-69
2022/03/06 04:07:21;;;;;;;21.25;14.27;;;;;;;;;;5012878;28;20054;-69
2022/03/06 04:09:49;;;;;;;20.10;14.68;;;;;;;;;;5012897;28;20042;-69
2022/03/06 04:12:17;;;;;;;23.83;13.13;;;;;;;;;;5002316;28;20054;-69
2022/03/06 04:14:44;;;;;;;18.27;13.73;;;;;;;;;;4997663;28;20414;-69
2022/03/06 04:17:12;;;;;;;23.05;14.77;;;;;;;;;;4996264;28;20042;-69
2022/03/06 04:19:39;;;;;;;16.45;12.35;;;;;;;;;;4998017;28;20062;-69
2022/03/06 04:22:06;;;;;;;19.80;13.13;;;;;;;;;;4996478;28;20078;-69
2022/03/06 04:24:34;;;;;;;19.35;13.05;;;;;;;;;;4980778;28;20043;-69
2022/03/06 04:27:01;;;;;;;19.23;13.90;;;;;;;;;;4994441;28;20050;-73
2022/03/06 04:29:28;;;;;;;18.50;13.05;;;;;;;;;;4977257;28;20446;-70
2022/03/06 04:31:56;;;;;;;21.85;15.02;;;;;;;;;;4994199;28;20062;-70
2022/03/06 04:34:24;;;;;;;18.05;12.52;;;;;;;;;;5010045;28;20050;-70
2022/03/06 04:36:51;;;;;;;20.10;13.77;;;;;;;;;;4986849;28;20054;-70
2022/03/06 04:39:19;;;;;;;17.48;13.50;;;;;;;;;;5010815;28;20409;-70
2022/03/06 04:41:47;;;;;;;20.05;14.35;;;;;;;;;;4993047;28;20046;-70
2022/03/06 04:44:14;;;;;;;18.23;14.02;;;;;;;;;;4981146;28;20450;-70
2022/03/06 04:46:42;;;;;;;19.50;14.50;;;;;;;;;;5005044;28;20070;-70
2022/03/06 04:49:10;;;;;;;18.65;14.30;;;;;;;;;;4979897;28;20085;-70
2022/03/06 04:51:38;;;;;;;17.13;13.43;;;;;;;;;;4995509;28;20509;-71
2022/03/06 04:54:07;;;;;;;21.40;15.73;;;;;;;;;;4995720;28;20130;-69
2022/03/06 04:56:36;;;;;;;20.83;14.02;;;;;;;;;;4996593;28;20068;-70
2022/03/06 04:59:03;;;;;;;21.33;14.00;;;;;;;;;;4990787;28;20105;-70
2022/03/06 05:01:30;;;;;;;20.33;14.05;;;;;;;;;;4996347;28;20125;-69
2022/03/06 05:04:00;;;;;;;19.88;13.73;;;;;;;;;;4995648;28;20450;-70
2022/03/06 05:06:28;;;;;;;22.73;14.52;;;;;;;;;;4995354;28;20113;-69
2022/03/06 05:08:56;;;;;;;19.83;13.90;;;;;;;;;;4996561;28;20082;-69
2022/03/06 05:11:23;;;;;;;17.75;13.70;;;;;;;;;;4994843;28;20054;-69
2022/03/06 05:13:52;;;;;;;16.88;13.10;;;;;;;;;;4988247;28;20498;-69
2022/03/06 05:16:19;;;;;;;18.70;14.10;;;;;;;;;;4977635;28;20097;-69
2022/03/06 05:18:47;;;;;;;18.73;14.38;;;;;;;;;;4989444;28;20508;-70
2022/03/06 05:21:15;;;;;;;18.48;13.43;;;;;;;;;;4977548;28;20093;-69
2022/03/06 05:23:42;;;;;;;25.73;14.45;;;;;;;;;;4977860;28;20126;-70
2022/03/06 05:26:09;;;;;;;18.05;13.75;;;;;;;;;;4989316;28;20051;-70
2022/03/06 05:28:39;;;;;;;21.90;14.20;;;;;;;;;;4977366;28;20059;-69
2022/03/06 05:31:08;;;;;;;20.17;14.73;;;;;;;;;;4977509;28;20070;-69
2022/03/06 05:33:35;;;;;;;26.83;15.73;;;;;;;;;;4994356;28;20046;-69
2022/03/06 05:36:03;;;;;;;19.10;15.45;;;;;;;;;;4981031;28;20142;-69
2022/03/06 05:38:31;;;;;;;23.02;16.20;;;;;;;;;;4985094;28;20050;-69
2022/03/06 05:40:59;;;;;;;18.25;13.02;;;;;;;;;;4995238;28;20124;-69
2022/03/06 05:43:27;;;;;;;21.23;14.40;;;;;;;;;;4995960;28;20059;-69
2022/03/06 05:45:56;;;;;;;20.50;14.60;;;;;;;;;;4994531;28;20057;-70
2022/03/06 05:48:24;;;;;;;22.90;14.50;;;;;;;;;;4983397;28;20046;-69
2022/03/06 05:50:52;;;;;;;21.17;13.77;;;;;;;;;;4996319;28;20104;-70
2022/03/06 05:53:20;;;;;;;19.75;14.40;;;;;;;;;;4982097;28;20044;-70
2022/03/06 05:55:47;;;;;;;20.00;14.63;;;;;;;;;;4975195;28;20057;-69
2022/03/06 05:58:14;;;;;;;21.98;16.77;;;;;;;;;;4992754;28;20038;-70
2022/03/06 06:00:42;;;;;;;21.67;15.73;;;;;;;;;;4978652;28;20054;-70
2022/03/06 06:03:09;;;;;;;20.35;16.13;;;;;;;;;;4994536;28;20224;-69
2022/03/06 06:05:38;;;;;;;33.30;16.35;;;;;;;;;;4979312;28;20060;-70
2022/03/06 06:08:05;;;;;;;23.77;16.60;;;;;;;;;;4992402;28;20134;-69
2022/03/06 06:10:33;;;;;;;24.75;17.33;;;;;;;;;;4987087;28;20082;-69
2022/03/06 06:13:00;;;;;;;25.15;17.33;;;;;;;;;;4986994;28;20053;-69
2022/03/06 06:15:27;;;;;;;23.38;16.63;;;;;;;;;;4995460;28;20077;-69
2022/03/06 06:18:02;;;;;;;21.73;16.63;;;;;;;;;;4984687;28;20057;-69
2022/03/06 06:20:29;;;;;;;23.77;17.23;;;;;;;;;;4983950;28;20047;-72
2022/03/06 06:22:57;;;;;;;22.20;17.02;;;;;;;;;;4981483;28;20289;-72
2022/03/06 06:25:25;;;;;;;24.23;16.73;;;;;;;;;;4990459;28;20050;-70
2022/03/06 06:27:53;;;;;;;22.95;16.50;;;;;;;;;;4986634;28;20053;-70
2022/03/06 06:30:20;;;;;;;20.83;14.85;;;;;;;;;;5003241;28;20445;-69
2022/03/06 06:32:47;;;;;;;20.63;14.45;;;;;;;;;;4983629;28;20133;-69
2022/03/06 06:35:15;;;;;;;21.13;14.18;;;;;;;;;;4989137;28;20054;-69
2022/03/06 06:37:43;;;;;;;18.80;16.10;;;;;;;;;;4986395;28;20055;-69
2022/03/06 06:40:10;;;;;;;19.52;14.18;;;;;;;;;;4998712;28;20042;-70
2022/03/06 06:42:38;;;;;;;20.15;16.58;;;;;;;;;;5002448;28;20145;-71
2022/03/06 06:45:06;;;;;;;19.80;15.43;;;;;;;;;;4983953;28;20046;-69
2022/03/06 06:47:35;;;;;;;18.38;13.85;;;;;;;;;;4975193;28;20050;-69
2022/03/06 06:50:03;;;;;;;22.48;15.23;;;;;;;;;;4986820;28;20058;-68
2022/03/06 06:52:31;;;;;;;20.48;15.15;;;;;;;;;;4973200;28;20137;-68
2022/03/06 06:54:59;;;;;;;21.65;15.90;;;;;;;;;;4982449;28;20141;-69
2022/03/06 06:57:29;;;;;;;24.73;17.45;;;;;;;;;;4983561;28;20046;-69
2022/03/06 06:59:57;;;;;;;24.88;16.48;;;;;;;;;;4977974;28;20566;-69
2022/03/06 07:02:24;;;;;;;26.15;14.57;;;;;;;;;;4977349;28;20059;-69
2022/03/06 07:04:57;;;;;;;21.65;16.40;;;;;;;;;;4981931;28;20101;-69
2022/03/06 07:07:25;;;;;;;17.63;14.35;;;;;;;;;;4991124;28;20058;-70
2022/03/06 07:09:53;;;;;;;21.52;16.55;;;;;;;;;;4988451;28;20069;-70
2022/03/06 07:12:22;;;;;;;19.63;15.98;;;;;;;;;;4989758;28;20043;-70
2022/03/06 07:14:50;;;;;;;23.25;15.13;;;;;;;;;;4982916;28;20061;-69
2022/03/06 07:17:18;;;;;;;23.48;16.33;;;;;;;;;;4975464;28;20477;-69
2022/03/06 07:19:45;;;;;;;20.48;14.98;;;;;;;;;;4992537;28;20125;-69
2022/03/06 07:22:12;;;;;;;23.60;15.50;;;;;;;;;;4978026;28;20142;-69
2022/03/06 07:24:40;;;;;;;23.35;14.70;;;;;;;;;;4983955;28;20101;-71
2022/03/06 07:27:07;;;;;;;27.52;16.23;;;;;;;;;;4990463;28;20502;-69
2022/03/06 07:29:34;;;;;;;23.30;17.42;;;;;;;;;;4986448;28;20046;-71
2022/03/06 07:32:03;;;;;;;23.83;15.40;;;;;;;;;;4990654;28;20117;-70
2022/03/06 07:34:31;;;;;;;23.20;16.70;;;;;;;;;;4981541;28;20047;-71
2022/03/06 07:36:59;;;;;;;26.15;17.92;;;;;;;;;;4977639;28;20078;-68
2022/03/06 07:39:27;;;;;;;23.65;16.30;;;;;;;;;;4975601;28;20093;-69
2022/03/06 07:41:54;;;;;;;23.02;16.42;;;;;;;;;;4989364;28;20042;-68
2022/03/06 07:44:22;;;;;;;25.38;16.38;;;;;;;;;;4998014;28;20049;-71
2022/03/06 07:46:49;;;;;;;23.80;17.70;;;;;;;;;;4976060;28;20054;-71
2022/03/06 07:49:17;;;;;;;23.85;17.38;;;;;;;;;;4987802;28;20140;-72
2022/03/06 07:51:45;;;;;;;25.15;17.85;;;;;;;;;;4979323;28;20054;-67
2022/03/06 07:54:14;;;;;;;26.90;16.48;;;;;;;;;;4981020;28;20054;-66
2022/03/06 07:56:41;;;;;;;23.80;17.42;;;;;;;;;;4976999;28;20070;-67
2022/03/06 07:59:09;;;;;;;26.70;17.00;;;;;;;;;;4985843;28;20065;-68
2022/03/06 08:01:36;;;;;;;27.25;16.77;;;;;;;;;;4995463;28;20133;-67
2022/03/06 08:04:03;;;;;;;35.05;18.40;;;;;;;;;;4984098;28;20113;-68
2022/03/06 08:06:30;;;;;;;24.55;17.50;;;;;;;;;;4990426;28;20054;-68
2022/03/06 08:08:57;;;;;;;21.77;17.35;;;;;;;;;;5007233;28;20137;-68
2022/03/06 08:11:26;;;;;;;25.45;16.98;;;;;;;;;;4998311;28;20101;-69
2022/03/06 08:13:55;;;;;;;27.00;19.17;;;;;;;;;;4990103;28;20042;-68
2022/03/06 08:16:23;;;;;;;23.13;18.02;;;;;;;;;;4990763;28;20042;-68
2022/03/06 08:18:50;;;;;;;28.80;18.40;;;;;;;;;;4990800;28;20466;-68
2022/03/06 08:21:18;;;;;;;24.30;18.80;;;;;;;;;;4989684;28;20050;-68
2022/03/06 08:23:45;;;;;;;26.05;17.98;;;;;;;;;;4989048;28;20054;-68
2022/03/06 08:26:13;;;;;;;25.65;17.70;;;;;;;;;;4992027;28;20057;-67
2022/03/06 08:28:40;;;;;;;18.90;14.77;;;;;;;;;;4989040;28;20052;-68
2022/03/06 08:31:08;;;;;;;20.13;13.82;;;;;;;;;;4992244;28;20510;-68
2022/03/06 08:33:37;;;;;;;21.08;15.32;;;;;;;;;;4993088;28;20055;-68
2022/03/06 08:36:04;;;;;;;23.65;16.15;;;;;;;;;;4993337;28;20046;-69
2022/03/06 08:38:34;;;;;;;22.92;15.50;;;;;;;;;;4975098;28;20046;-70
2022/03/06 08:41:01;;;;;;;23.10;17.52;;;;;;;;;;4992690;28;20449;-70
2022/03/06 08:43:29;;;;;;;23.92;18.40;;;;;;;;;;4992659;28;20050;-69
2022/03/06 08:45:55;;;;;;;20.52;15.43;;;;;;;;;;4987465;28;20505;-67
2022/03/06 08:48:23;;;;;;;24.33;15.05;;;;;;;;;;4987930;28;20101;-68
2022/03/06 08:50:51;;;;;;;20.50;16.48;;;;;;;;;;4995461;28;20051;-69
2022/03/06 08:53:18;;;;;;;20.77;16.27;;;;;;;;;;4993136;28;20062;-69
2022/03/06 08:55:47;;;;;;;18.77;15.20;;;;;;;;;;4993999;28;20057;-69
2022/03/06 08:58:16;;;;;;;23.40;15.35;;;;;;;;;;4996830;28;20053;-72
2022/03/06 09:00:44;;;;;;;19.65;14.30;;;;;;;;;;4996523;28;20575;-71
2022/03/06 09:03:11;;;;;;;20.17;13.85;;;;;;;;;;4979179;28;20059;-71
2022/03/06 09:05:40;;;;;;;20.15;14.40;;;;;;;;;;4991756;28;20079;-68
2022/03/06 09:08:11;;;;;;;20.90;15.35;;;;;;;;;;4995021;28;20057;-69
2022/03/06 09:10:39;;;;;;;21.42;15.70;;;;;;;;;;4977252;28;20074;-70
2022/03/06 09:13:08;;;;;;;19.52;14.32;;;;;;;;;;4976002;28;20147;-69
2022/03/06 09:15:37;;;;;;;20.95;15.88;;;;;;;;;;4976897;28;20042;-70
2022/03/06 09:18:04;;;;;;;21.58;16.10;;;;;;;;;;4990068;28;20054;-70
2022/03/06 09:20:32;;;;;;;19.25;15.88;;;;;;;;;;5008601;28;20124;-69
2022/03/06 09:23:00;;;;;;;18.50;14.98;;;;;;;;;;4977304;28;20061;-70
2022/03/06 09:25:32;;;;;;;20.88;14.52;;;;;;;;;;4977092;28;20057;-70
2022/03/06 09:28:01;;;;;;;19.83;13.65;;;;;;;;;;4987039;28;20058;-69
2022/03/06 09:30:28;;;;;;;15.88;12.85;;;;;;;;;;4990161;28;20159;-69
2022/03/06 09:32:56;;;;;;;19.38;14.77;;;;;;;;;;4992502;28;20050;-69
2022/03/06 09:35:24;;;;;;;19.33;14.73;;;;;;;;;;4984105;28;20498;-69
2022/03/06 09:37:53;;;;;;;25.63;15.20;;;;;;;;;;4990576;28;20129;-69
2022/03/06 09:40:20;;;;;;;21.88;14.40;;;;;;;;;;4978216;28;20481;-69
2022/03/06 09:42:48;;;;;;;17.50;13.35;;;;;;;;;;4991526;28;20061;-69
2022/03/06 09:45:16;;;;;;;22.50;15.25;;;;;;;;;;4991167;28;20074;-69
2022/03/06 09:47:45;;;;;;;19.80;14.52;;;;;;;;;;4987789;28;20513;-69
2022/03/06 09:50:13;;;;;;;16.42;13.40;;;;;;;;;;4984316;28;20055;-69
2022/03/06 09:52:41;;;;;;;18.73;13.93;;;;;;;;;;4976561;28;20133;-69
2022/03/06 09:55:09;;;;;;;18.42;13.80;;;;;;;;;;4976781;28;20062;-69
2022/03/06 09:57:38;;;;;;;18.88;15.50;;;;;;;;;;4989997;28;20058;-71
2022/03/06 10:00:07;;;;;;;18.95;15.32;;;;;;;;;;4990690;28;20051;-73
2022/03/06 10:03:20;;;;;;;15.35;11.80;;;;;;;;;;4988459;28;20104;-70
2022/03/06 10:05:49;;;;;;;16.35;13.40;;;;;;;;;;4993116;28;20062;-69
2022/03/06 10:08:28;;;;;;;14.75;11.55;;;;;;;;;;4976888;28;20602;-69
2022/03/06 10:11:10;;;;;;;18.15;13.48;;;;;;;;;;4976840;28;20070;-71
2022/03/06 10:13:38;;;;;;;17.73;12.63;;;;;;;;;;4986133;28;20070;-69
2022/03/06 10:16:13;;;;;;;15.73;12.52;;;;;;;;;;4989938;28;20096;-69
2022/03/06 10:18:47;;;;;;;16.25;12.98;;;;;;;;;;4994959;28;20139;-69
2022/03/06 10:21:19;;;;;;;16.73;12.85;;;;;;;;;;4994224;28;20042;-69
2022/03/06 10:23:49;;;;;;;17.13;12.38;;;;;;;;;;4994092;28;20043;-69
2022/03/06 10:26:25;;;;;;;15.25;11.60;;;;;;;;;;4993489;28;20137;-69
2022/03/06 10:29:01;;;;;;;16.25;13.43;;;;;;;;;;4993841;28;20417;-69
2022/03/06 10:31:33;;;;;;;14.30;12.48;;;;;;;;;;4978994;28;20047;-69
2022/03/06 10:34:06;;;;;;;13.88;11.40;;;;;;;;;;4986140;28;20388;-69
2022/03/06 10:36:40;;;;;;;19.88;14.73;;;;;;;;;;4978205;28;20451;-69
2022/03/06 10:39:20;;;;;;;14.73;11.30;;;;;;;;;;4993208;28;20054;-69
2022/03/06 10:41:51;;;;;;;17.58;12.02;;;;;;;;;;4993855;28;20042;-69
2022/03/06 10:44:21;;;;;;;14.75;11.18;;;;;;;;;;4994684;28;20199;-69
2022/03/06 10:47:02;;;;;;;13.95;11.10;;;;;;;;;;4993274;28;20050;-69
2022/03/06 10:49:32;;;;;;;14.25;9.48;;;;;;;;;;4993084;28;20093;-69
2022/03/06 10:52:12;;;;;;;16.35;12.35;;;;;;;;;;4994302;28;20046;-69
2022/03/06 10:54:53;;;;;;;16.35;10.27;;;;;;;;;;4995087;28;20453;-68
2022/03/06 10:57:21;;;;;;;12.65;9.60;;;;;;;;;;4993737;28;20058;-68
2022/03/06 10:59:50;;;;;;;15.15;9.93;;;;;;;;;;4992252;28;20049;-69
2022/03/06 11:02:18;;;;;;;13.68;10.00;;;;;;;;;;4977210;28;20399;-70
2022/03/06 11:04:53;;;;;;;13.85;9.43;;;;;;;;;;4989798;28;20058;-70
2022/03/06 11:07:21;;;;;;;16.08;9.10;;;;;;;;;;4975469;28;20099;-71
2022/03/06 11:09:49;;;;;;;14.52;11.82;;;;;;;;;;4988123;28;20066;-71
2022/03/06 11:12:17;;;;;;;13.63;10.35;;;;;;;;;;4993155;28;20133;-71
2022/03/06 11:14:44;;;;;;;14.15;9.82;;;;;;;;;;4985306;28;20046;-71
2022/03/06 11:17:12;;;;;;;12.65;11.02;;;;;;;;;;4993783;28;20501;-71
2022/03/06 11:19:40;;;;;;;14.18;9.95;;;;;;;;;;4992541;28;20058;-71
2022/03/06 11:22:20;;;;;;;13.43;10.35;;;;;;;;;;4994032;28;20046;-71
2022/03/06 11:24:56;;;;;;;14.88;10.27;;;;;;;;;;4993028;28;20712;-70
2022/03/06 11:27:44;;;;;;;14.90;9.85;;;;;;;;;;4990391;28;20042;-70
2022/03/06 11:30:22;;;;;;;14.82;9.93;;;;;;;;;;4990733;28;20050;-71
2022/03/06 11:33:10;;;;;;;14.55;10.50;;;;;;;;;;4990088;28;20054;-71
2022/03/06 11:35:44;;;;;;;14.63;10.88;;;;;;;;;;4993644;28;20496;-70
2022/03/06 11:38:17;;;;;;;12.65;10.45;;;;;;;;;;4988844;28;20129;-70
2022/03/06 11:40:54;;;;;;;16.55;11.80;;;;;;;;;;4975560;28;20046;-70
2022/03/06 11:43:35;;;;;;;11.88;9.50;;;;;;;;;;4973831;28;20070;-70
2022/03/06 11:46:03;;;;;;;14.98;11.13;;;;;;;;;;4987204;28;20516;-70
2022/03/06 11:48:33;;;;;;;14.00;10.07;;;;;;;;;;4993156;28;20413;-69
2022/03/06 11:51:12;;;;;;;12.52;10.05;;;;;;;;;;4993796;28;20073;-69
2022/03/06 11:54:15;;;;;;;14.43;11.43;;;;;;;;;;4989984;28;20081;-69
2022/03/06 11:56:51;;;;;;;13.50;9.30;;;;;;;;;;4993200;28;20582;-69
2022/03/06 11:59:30;;;;;;;14.05;11.18;;;;;;;;;;4975710;28;20054;-70
2022/03/06 12:02:05;;;;;;;13.38;9.73;;;;;;;;;;4981672;28;20054;-70
2022/03/06 12:04:38;;;;;;;12.13;9.57;;;;;;;;;;4974200;28;20050;-71
2022/03/06 12:07:08;;;;;;;13.73;10.05;;;;;;;;;;4974770;28;20070;-70
2022/03/06 12:09:55;;;;;;;13.43;10.18;;;;;;;;;;4987403;28;20213;-70
2022/03/06 12:12:25;;;;;;;11.57;10.30;;;;;;;;;;4990667;28;20072;-71
2022/03/06 12:14:56;;;;;;;12.85;10.32;;;;;;;;;;4992148;28;20088;-70
2022/03/06 12:17:30;;;;;;;14.68;12.00;;;;;;;;;;4991749;28;20402;-70
2022/03/06 12:19:57;;;;;;;13.43;11.20;;;;;;;;;;4992375;28;20072;-70
2022/03/06 12:22:34;;;;;;;11.80;9.43;;;;;;;;;;4996258;28;20050;-70
2022/03/06 12:25:04;;;;;;;11.18;8.63;;;;;;;;;;4994807;28;20046;-69
2022/03/06 12:27:33;;;;;;;14.05;8.90;;;;;;;;;;4985421;28;20049;-70
2022/03/06 12:30:09;;;;;;;11.95;8.65;;;;;;;;;;4983775;28;20113;-69
2022/03/06 12:32:38;;;;;;;13.15;9.10;;;;;;;;;;4986335;28;20422;-69
2022/03/06 12:35:25;;;;;;;12.30;8.90;;;;;;;;;;4991348;28;20101;-69
2022/03/06 12:37:59;;;;;;;12.50;9.48;;;;;;;;;;4982687;28;20517;-69
2022/03/06 12:40:34;;;;;;;19.40;11.95;;;;;;;;;;4978835;28;20055;-69
2022/03/06 12:43:04;;;;;;;13.98;9.48;;;;;;;;;;4994043;28;20132;-69
2022/03/06 12:45:33;;;;;;;13.13;9.10;;;;;;;;;;4981762;28;20047;-69
2022/03/06 12:48:01;;;;;;;11.68;9.43;;;;;;;;;;4988903;28;20391;-68
2022/03/06 12:50:29;;;;;;;11.20;9.23;;;;;;;;;;4982208;28;20053;-71
2022/03/06 12:52:57;;;;;;;10.95;8.10;;;;;;;;;;4983587;28;20054;-70
2022/03/06 12:55:26;;;;;;;10.05;7.97;;;;;;;;;;4982698;28;20054;-71
2022/03/06 12:57:58;;;;;;;12.35;8.45;;;;;;;;;;4984206;28;20137;-71
2022/03/06 13:00:26;;;;;;;10.15;7.70;;;;;;;;;;4983884;28;20062;-70
2022/03/06 13:03:15;;;;;;;10.50;8.20;;;;;;;;;;4977268;28;20050;-71
2022/03/06 13:05:44;;;;;;;11.88;8.90;;;;;;;;;;4988991;28;20161;-70
2022/03/06 13:08:12;;;;;;;9.98;7.50;;;;;;;;;;4993133;28;20048;-70
2022/03/06 13:10:39;;;;;;;10.57;8.40;;;;;;;;;;4979325;28;20116;-71
2022/03/06 13:13:07;;;;;;;10.00;6.90;;;;;;;;;;4995361;28;20058;-70
2022/03/06 13:15:34;;;;;;;11.35;8.25;;;;;;;;;;4996456;28;20056;-70
2022/03/06 13:18:07;;;;;;;10.85;7.35;;;;;;;;;;4994407;28;20042;-70
2022/03/06 13:20:39;;;;;;;8.48;7.07;;;;;;;;;;4994780;28;20513;-72
2022/03/06 13:23:19;;;;;;;11.48;8.35;;;;;;;;;;4996115;28;20046;-71
2022/03/06 13:25:49;;;;;;;7.53;6.47;;;;;;;;;;4995187;28;20046;-71
2022/03/06 13:28:16;;;;;;;11.73;7.80;;;;;;;;;;4995565;28;20485;-71
2022/03/06 13:30:44;;;;;;;12.13;7.30;;;;;;;;;;4987796;28;20116;-71
2022/03/06 13:33:19;;;;;;;10.23;7.57;;;;;;;;;;4978411;28;20094;-70
2022/03/06 13:35:48;;;;;;;12.25;7.25;;;;;;;;;;4992933;28;20080;-70
2022/03/06 13:38:28;;;;;;;10.98;7.95;;;;;;;;;;4993903;28;20709;-71
2022/03/06 13:40:58;;;;;;;11.63;8.63;;;;;;;;;;4995475;28;20054;-70
2022/03/06 13:43:34;;;;;;;8.52;7.00;;;;;;;;;;4994311;28;20065;-70
2022/03/06 13:46:04;;;;;;;11.68;8.25;;;;;;;;;;5010467;28;20460;-70
2022/03/06 13:48:35;;;;;;;11.50;9.40;;;;;;;;;;4988765;28;20357;-70
2022/03/06 13:51:04;;;;;;;9.38;7.65;;;;;;;;;;4988734;28;20074;-70
2022/03/06 13:53:32;;;;;;;10.15;7.32;;;;;;;;;;5008908;28;20070;-70
2022/03/06 13:56:01;;;;;;;8.40;7.18;;;;;;;;;;4983653;28;20047;-70
2022/03/06 13:58:43;;;;;;;9.15;7.65;;;;;;;;;;4988992;28;20433;-69
2022/03/06 14:01:14;;;;;;;11.15;8.20;;;;;;;;;;4997947;28;20061;-70
2022/03/06 14:03:44;;;;;;;11.32;8.32;;;;;;;;;;4993214;28;20105;-70
2022/03/06 14:06:15;;;;;;;8.02;6.28;;;;;;;;;;4988507;28;20417;-70
2022/03/06 14:08:47;;;;;;;9.57;7.28;;;;;;;;;;4978561;28;20078;-70
2022/03/06 14:11:33;;;;;;;11.40;8.63;;;;;;;;;;4992866;28;20043;-69
2022/03/06 14:14:00;;;;;;;12.10;7.85;;;;;;;;;;4990310;28;20042;-69
2022/03/06 14:16:30;;;;;;;10.48;7.43;;;;;;;;;;4991449;28;20050;-68
2022/03/06 14:19:01;;;;;;;8.75;7.03;;;;;;;;;;4994862;28;20458;-68
2022/03/06 14:21:29;;;;;;;14.32;8.65;;;;;;;;;;4990863;28;20109;-68
2022/03/06 14:23:57;;;;;;;8.68;7.40;;;;;;;;;;4993746;28;20047;-69
2022/03/06 14:26:36;;;;;;;9.38;7.70;;;;;;;;;;4994644;28;20038;-68
2022/03/06 14:29:12;;;;;;;9.88;6.95;;;;;;;;;;4990954;28;20077;-69
2022/03/06 14:31:53;;;;;;;9.20;8.07;;;;;;;;;;4989731;28;20081;-68
2022/03/06 14:34:29;;;;;;;9.05;7.35;;;;;;;;;;4993958;28;20486;-68